EWG32B LEPA-EDDK
Flight info
| Callsign | EWG32B |
|---|---|
| Flight time | 1h 49m |
| Altitude | 36000 |
| Route | MEROS N853 LUMAS DCT MAXIR DCT LUSOL DCT BODRU DCT OKTET DCT IRMAR DCT KINES DCT VANAS DCT MOBLO DCT UBIMA DCT GILIR DCT PENDU DCT IXILU DCT EPL DCT JARNY DCT ROUSY M624 DIK N853 ARCKY T853 IBESA T860 ERUKI |
| Aircraft | A320/M-SDE3FGHIRWY/LB1 |
Departure
| Time | 2026-05-04 20:44 |
|---|---|
| Airport | Palma de Mallorca Airport (LEPA) |
Arrival
| Time | 2026-05-04 22:34 |
|---|---|
| Airport | Cologne Bonn Airport (EDDK) |
| Time | Latitude | Longitude | Altitude | Speed | Heading |
|---|---|---|---|---|---|
| 2026-05-04 20:13 | 39.55130 | 2.72972 | 37 ft | 0 kts | 162° |
| 2026-05-04 20:14 | 39.55099 | 2.72903 | 38 ft | 0 kts | 163° |
| 2026-05-04 20:35 | 39.55101 | 2.72902 | 38 ft | 3 kts | 163° |
| 2026-05-04 20:35 | 39.55127 | 2.72893 | 38 ft | 3 kts | 163° |
| 2026-05-04 20:36 | 39.55148 | 2.72882 | 35 ft | 4 kts | 139° |
| 2026-05-04 20:36 | 39.55159 | 2.72856 | 38 ft | 4 kts | 77° |
| 2026-05-04 20:36 | 39.55149 | 2.72824 | 37 ft | 4 kts | 57° |
| 2026-05-04 20:36 | 39.55139 | 2.72803 | 37 ft | 0 kts | 59° |
| 2026-05-04 20:40 | 39.55141 | 2.72809 | 36 ft | 3 kts | 59° |
| 2026-05-04 20:40 | 39.55163 | 2.72855 | 38 ft | 9 kts | 59° |
| 2026-05-04 20:40 | 39.55204 | 2.72942 | 38 ft | 14 kts | 58° |
| 2026-05-04 20:40 | 39.55261 | 2.73064 | 38 ft | 16 kts | 58° |
| 2026-05-04 20:41 | 39.55317 | 2.73177 | 38 ft | 14 kts | 57° |
| 2026-05-04 20:41 | 39.55385 | 2.73319 | 38 ft | 23 kts | 59° |
| 2026-05-04 20:41 | 39.55465 | 2.73492 | 37 ft | 21 kts | 59° |
| 2026-05-04 20:41 | 39.55545 | 2.73548 | 38 ft | 12 kts | 339° |
| 2026-05-04 20:42 | 39.55647 | 2.73514 | 38 ft | 20 kts | 24° |
| 2026-05-04 20:42 | 39.55739 | 2.73681 | 37 ft | 26 kts | 57° |
| 2026-05-04 20:42 | 39.55840 | 2.73889 | 38 ft | 28 kts | 58° |
| 2026-05-04 20:42 | 39.55942 | 2.74106 | 37 ft | 29 kts | 58° |
| 2026-05-04 20:43 | 39.56062 | 2.74280 | 36 ft | 25 kts | 29° |
| 2026-05-04 20:43 | 39.56216 | 2.74362 | 38 ft | 22 kts | 345° |
| 2026-05-04 20:43 | 39.56237 | 2.74281 | 38 ft | 9 kts | 237° |
| 2026-05-04 20:43 | 39.56142 | 2.74081 | 38 ft | 57 kts | 238° |
| 2026-05-04 20:44 | 39.55817 | 2.73398 | 38 ft | 118 kts | 238° |
| 2026-05-04 20:44 | 39.55299 | 2.72304 | 49 ft | 163 kts | 239° |
| 2026-05-04 20:44 | 39.54686 | 2.70994 | 527 ft | 175 kts | 237° |
| 2026-05-04 20:44 | 39.54043 | 2.69629 | 1230 ft | 179 kts | 238° |
| 2026-05-04 20:45 | 39.53400 | 2.68263 | 1975 ft | 177 kts | 238° |
| 2026-05-04 20:45 | 39.52731 | 2.66849 | 2331 ft | 193 kts | 239° |
| 2026-05-04 20:45 | 39.52254 | 2.65845 | 2700 ft | 199 kts | 239° |
| 2026-05-04 20:45 | 39.51526 | 2.64314 | 3505 ft | 200 kts | 239° |
| 2026-05-04 20:46 | 39.50791 | 2.62768 | 4248 ft | 204 kts | 239° |
| 2026-05-04 20:46 | 39.49653 | 2.60768 | 5011 ft | 222 kts | 220° |
| 2026-05-04 20:46 | 39.48180 | 2.59854 | 5342 ft | 252 kts | 194° |
| 2026-05-04 20:46 | 39.46374 | 2.60042 | 5919 ft | 274 kts | 161° |
| 2026-05-04 20:47 | 39.45267 | 2.60946 | 6425 ft | 285 kts | 138° |
| 2026-05-04 20:47 | 39.44252 | 2.63180 | 7180 ft | 297 kts | 106° |
| 2026-05-04 20:47 | 39.43930 | 2.65845 | 7962 ft | 303 kts | 96° |
| 2026-05-04 20:47 | 39.43862 | 2.68583 | 8770 ft | 307 kts | 91° |
| 2026-05-04 20:48 | 39.43889 | 2.71368 | 9562 ft | 311 kts | 91° |
| 2026-05-04 20:48 | 39.43928 | 2.74182 | 10268 ft | 317 kts | 91° |
| 2026-05-04 20:48 | 39.43941 | 2.77141 | 10530 ft | 340 kts | 92° |
| 2026-05-04 20:48 | 39.43915 | 2.80307 | 10729 ft | 363 kts | 93° |
| 2026-05-04 20:49 | 39.43856 | 2.83657 | 11046 ft | 379 kts | 94° |
| 2026-05-04 20:49 | 39.43775 | 2.87101 | 11627 ft | 386 kts | 94° |
| 2026-05-04 20:49 | 39.43724 | 2.90551 | 12245 ft | 392 kts | 89° |
| 2026-05-04 20:49 | 39.44272 | 2.94032 | 12865 ft | 400 kts | 69° |
| 2026-05-04 20:50 | 39.45652 | 2.97162 | 13505 ft | 404 kts | 49° |
| 2026-05-04 20:50 | 39.47743 | 2.99558 | 14095 ft | 403 kts | 28° |
| 2026-05-04 20:50 | 39.50229 | 3.01235 | 14682 ft | 404 kts | 22° |
| 2026-05-04 20:50 | 39.52757 | 3.02858 | 15274 ft | 407 kts | 22° |
| 2026-05-04 20:51 | 39.55310 | 3.04503 | 15841 ft | 411 kts | 23° |
| 2026-05-04 20:51 | 39.57878 | 3.06165 | 16420 ft | 415 kts | 23° |
| 2026-05-04 20:51 | 39.60472 | 3.07851 | 16986 ft | 419 kts | 23° |
| 2026-05-04 20:51 | 39.63076 | 3.09549 | 17519 ft | 422 kts | 23° |
| 2026-05-04 20:52 | 39.65722 | 3.11281 | 18060 ft | 426 kts | 23° |
| 2026-05-04 20:52 | 39.68379 | 3.13021 | 18551 ft | 430 kts | 23° |
| 2026-05-04 20:52 | 39.71057 | 3.14772 | 18991 ft | 433 kts | 23° |
| 2026-05-04 20:52 | 39.73768 | 3.16542 | 19446 ft | 437 kts | 23° |
| 2026-05-04 20:53 | 39.76498 | 3.18325 | 19867 ft | 441 kts | 23° |
| 2026-05-04 20:53 | 39.79249 | 3.20128 | 20300 ft | 445 kts | 23° |
| 2026-05-04 20:53 | 39.82029 | 3.21954 | 20725 ft | 449 kts | 23° |
| 2026-05-04 20:53 | 39.84826 | 3.23791 | 21141 ft | 453 kts | 23° |
| 2026-05-04 20:54 | 39.87647 | 3.25648 | 21558 ft | 456 kts | 23° |
| 2026-05-04 20:54 | 39.90488 | 3.27519 | 21968 ft | 460 kts | 23° |
| 2026-05-04 20:54 | 39.93358 | 3.29408 | 22378 ft | 464 kts | 23° |
| 2026-05-04 20:54 | 39.96252 | 3.31316 | 22776 ft | 467 kts | 23° |
| 2026-05-04 20:55 | 39.99121 | 3.33209 | 23169 ft | 471 kts | 22° |
| 2026-05-04 20:55 | 40.02054 | 3.35144 | 23554 ft | 474 kts | 22° |
| 2026-05-04 20:55 | 40.05005 | 3.37090 | 23889 ft | 477 kts | 22° |
| 2026-05-04 20:55 | 40.07979 | 3.39055 | 24224 ft | 480 kts | 23° |
| 2026-05-04 20:56 | 40.10960 | 3.41031 | 24556 ft | 482 kts | 23° |
| 2026-05-04 20:56 | 40.13960 | 3.43024 | 24889 ft | 484 kts | 23° |
| 2026-05-04 20:56 | 40.16971 | 3.45025 | 25224 ft | 487 kts | 23° |
| 2026-05-04 20:56 | 40.19995 | 3.47031 | 25555 ft | 489 kts | 23° |
| 2026-05-04 20:57 | 40.23035 | 3.49049 | 25882 ft | 491 kts | 23° |
| 2026-05-04 20:57 | 40.26090 | 3.51080 | 26207 ft | 494 kts | 23° |
| 2026-05-04 20:57 | 40.29160 | 3.53126 | 26530 ft | 496 kts | 23° |
| 2026-05-04 20:57 | 40.32237 | 3.55182 | 26840 ft | 498 kts | 23° |
| 2026-05-04 20:58 | 40.35329 | 3.57252 | 27149 ft | 500 kts | 23° |
| 2026-05-04 20:58 | 40.38437 | 3.59332 | 27444 ft | 502 kts | 23° |
| 2026-05-04 20:58 | 40.41555 | 3.61420 | 27731 ft | 504 kts | 23° |
| 2026-05-04 20:58 | 40.44691 | 3.63518 | 28024 ft | 506 kts | 24° |
| 2026-05-04 20:59 | 40.47836 | 3.65621 | 28308 ft | 508 kts | 24° |
| 2026-05-04 20:59 | 40.50993 | 3.67732 | 28586 ft | 510 kts | 24° |
| 2026-05-04 20:59 | 40.54163 | 3.69856 | 28851 ft | 512 kts | 24° |
| 2026-05-04 20:59 | 40.57339 | 3.71991 | 29129 ft | 514 kts | 24° |
| 2026-05-04 21:00 | 40.60440 | 3.74088 | 29514 ft | 513 kts | 24° |
| 2026-05-04 21:00 | 40.63458 | 3.76132 | 29899 ft | 512 kts | 24° |
| 2026-05-04 21:00 | 40.66622 | 3.78271 | 30236 ft | 512 kts | 24° |
| 2026-05-04 21:00 | 40.69791 | 3.80411 | 30569 ft | 511 kts | 24° |
| 2026-05-04 21:01 | 40.72952 | 3.82544 | 30889 ft | 510 kts | 24° |
| 2026-05-04 21:01 | 40.76112 | 3.84676 | 31217 ft | 510 kts | 24° |
| 2026-05-04 21:01 | 40.79264 | 3.86808 | 31536 ft | 509 kts | 24° |
| 2026-05-04 21:01 | 40.82409 | 3.88942 | 31867 ft | 508 kts | 24° |
| 2026-05-04 21:02 | 40.85551 | 3.91074 | 32194 ft | 507 kts | 24° |
| 2026-05-04 21:02 | 40.88646 | 3.93176 | 32517 ft | 507 kts | 24° |
| 2026-05-04 21:02 | 40.91779 | 3.95307 | 32833 ft | 506 kts | 24° |
| 2026-05-04 21:02 | 40.94903 | 3.97434 | 33155 ft | 505 kts | 24° |
| 2026-05-04 21:03 | 40.98027 | 3.99565 | 33483 ft | 505 kts | 24° |
| 2026-05-04 21:03 | 41.01142 | 4.01695 | 33800 ft | 504 kts | 24° |
| 2026-05-04 21:03 | 41.04253 | 4.03828 | 34092 ft | 503 kts | 24° |
| 2026-05-04 21:03 | 41.07360 | 4.05958 | 34368 ft | 502 kts | 24° |
| 2026-05-04 21:04 | 41.10464 | 4.08085 | 34656 ft | 501 kts | 24° |
| 2026-05-04 21:04 | 41.13559 | 4.10207 | 34934 ft | 500 kts | 24° |
| 2026-05-04 21:04 | 41.16653 | 4.12327 | 35202 ft | 500 kts | 24° |
| 2026-05-04 21:04 | 41.19732 | 4.14438 | 35455 ft | 499 kts | 24° |
| 2026-05-04 21:05 | 41.22813 | 4.16557 | 35703 ft | 498 kts | 24° |
| 2026-05-04 21:05 | 41.25884 | 4.18675 | 35903 ft | 497 kts | 24° |
| 2026-05-04 21:05 | 41.32033 | 4.22916 | 35953 ft | 498 kts | 24° |
| 2026-05-04 21:06 | 41.38193 | 4.27159 | 35949 ft | 498 kts | 24° |
| 2026-05-04 21:06 | 41.44333 | 4.31405 | 35950 ft | 497 kts | 24° |
| 2026-05-04 21:07 | 41.50460 | 4.35664 | 35947 ft | 496 kts | 24° |
| 2026-05-04 21:07 | 41.56574 | 4.39927 | 35946 ft | 496 kts | 25° |
| 2026-05-04 21:08 | 41.62649 | 4.44163 | 35948 ft | 495 kts | 25° |
| 2026-05-04 21:08 | 41.68759 | 4.48423 | 35949 ft | 495 kts | 25° |
| 2026-05-04 21:09 | 41.74868 | 4.52689 | 35950 ft | 495 kts | 25° |
| 2026-05-04 21:09 | 41.80972 | 4.56979 | 35954 ft | 495 kts | 25° |
| 2026-05-04 21:10 | 41.87069 | 4.61278 | 35957 ft | 495 kts | 25° |
| 2026-05-04 21:10 | 41.93162 | 4.65567 | 35952 ft | 495 kts | 25° |
| 2026-05-04 21:11 | 41.99256 | 4.69861 | 35953 ft | 494 kts | 25° |
| 2026-05-04 21:11 | 42.05344 | 4.74164 | 35951 ft | 494 kts | 25° |
| 2026-05-04 21:12 | 42.11427 | 4.78484 | 35954 ft | 494 kts | 25° |
| 2026-05-04 21:12 | 42.17508 | 4.82813 | 35956 ft | 494 kts | 25° |
| 2026-05-04 21:13 | 42.23594 | 4.87135 | 35957 ft | 494 kts | 25° |
| 2026-05-04 21:13 | 42.29677 | 4.91479 | 35960 ft | 495 kts | 25° |
| 2026-05-04 21:14 | 42.35722 | 4.95806 | 35962 ft | 495 kts | 25° |
| 2026-05-04 21:14 | 42.41801 | 5.00162 | 35969 ft | 495 kts | 25° |
| 2026-05-04 21:15 | 42.47885 | 5.04534 | 35970 ft | 495 kts | 26° |
| 2026-05-04 21:15 | 42.53961 | 5.08909 | 35974 ft | 495 kts | 26° |
| 2026-05-04 21:16 | 42.60036 | 5.13293 | 35972 ft | 494 kts | 26° |
| 2026-05-04 21:16 | 42.66105 | 5.17689 | 35976 ft | 494 kts | 26° |
| 2026-05-04 21:17 | 42.72167 | 5.22093 | 35983 ft | 494 kts | 26° |
| 2026-05-04 21:17 | 42.78234 | 5.26503 | 35987 ft | 494 kts | 26° |
| 2026-05-04 21:18 | 42.84304 | 5.30917 | 35990 ft | 494 kts | 26° |
| 2026-05-04 21:18 | 42.90363 | 5.35331 | 35991 ft | 494 kts | 26° |
| 2026-05-04 21:19 | 42.96418 | 5.39759 | 35994 ft | 494 kts | 26° |
| 2026-05-04 21:19 | 43.02467 | 5.44205 | 35985 ft | 494 kts | 26° |
| 2026-05-04 21:20 | 43.08475 | 5.48623 | 35981 ft | 494 kts | 26° |
| 2026-05-04 21:20 | 43.14525 | 5.53069 | 35979 ft | 494 kts | 26° |
| 2026-05-04 21:21 | 43.20582 | 5.57536 | 35978 ft | 494 kts | 26° |
| 2026-05-04 21:21 | 43.26630 | 5.62020 | 35980 ft | 494 kts | 26° |
| 2026-05-04 21:22 | 43.32680 | 5.66510 | 35985 ft | 495 kts | 26° |
| 2026-05-04 21:22 | 43.38733 | 5.71003 | 35986 ft | 494 kts | 26° |
| 2026-05-04 21:23 | 43.44782 | 5.75506 | 35989 ft | 494 kts | 26° |
| 2026-05-04 21:23 | 43.50829 | 5.80032 | 35990 ft | 494 kts | 26° |
| 2026-05-04 21:24 | 43.56877 | 5.84555 | 36000 ft | 495 kts | 26° |
| 2026-05-04 21:24 | 43.62921 | 5.89089 | 36008 ft | 495 kts | 26° |
| 2026-05-04 21:25 | 43.68963 | 5.93637 | 36017 ft | 494 kts | 26° |
| 2026-05-04 21:25 | 43.75008 | 5.98183 | 36020 ft | 494 kts | 26° |
| 2026-05-04 21:26 | 43.81043 | 6.02744 | 36026 ft | 494 kts | 26° |
| 2026-05-04 21:26 | 43.87069 | 6.07313 | 36027 ft | 494 kts | 26° |
| 2026-05-04 21:27 | 43.93091 | 6.11880 | 36024 ft | 493 kts | 26° |
| 2026-05-04 21:27 | 43.99078 | 6.16426 | 36022 ft | 493 kts | 27° |
| 2026-05-04 21:28 | 44.05088 | 6.21010 | 36021 ft | 493 kts | 27° |
| 2026-05-04 21:28 | 44.11106 | 6.25614 | 36022 ft | 493 kts | 27° |
| 2026-05-04 21:29 | 44.17115 | 6.30222 | 36021 ft | 493 kts | 27° |
| 2026-05-04 21:29 | 44.23125 | 6.34814 | 36023 ft | 492 kts | 25° |
| 2026-05-04 21:30 | 44.26290 | 6.36544 | 36027 ft | 486 kts | 10° |
| 2026-05-04 21:30 | 44.29609 | 6.37152 | 36031 ft | 477 kts | 355° |
| 2026-05-04 21:30 | 44.36217 | 6.36721 | 36020 ft | 475 kts | 352° |
| 2026-05-04 21:31 | 44.46135 | 6.35995 | 36025 ft | 476 kts | 352° |
| 2026-05-04 21:32 | 44.52758 | 6.35506 | 36032 ft | 477 kts | 352° |
| 2026-05-04 21:32 | 44.59385 | 6.35019 | 36043 ft | 477 kts | 352° |
| 2026-05-04 21:33 | 44.66017 | 6.34541 | 36038 ft | 477 kts | 353° |
| 2026-05-04 21:33 | 44.72646 | 6.34060 | 36046 ft | 477 kts | 352° |
| 2026-05-04 21:34 | 44.79279 | 6.33570 | 36050 ft | 477 kts | 353° |
| 2026-05-04 21:34 | 44.85867 | 6.33083 | 36053 ft | 477 kts | 353° |
| 2026-05-04 21:35 | 44.92483 | 6.32589 | 36049 ft | 477 kts | 353° |
| 2026-05-04 21:35 | 44.99106 | 6.32093 | 36036 ft | 476 kts | 353° |
| 2026-05-04 21:36 | 45.05724 | 6.31614 | 36035 ft | 476 kts | 353° |
| 2026-05-04 21:36 | 45.12340 | 6.31137 | 36025 ft | 476 kts | 353° |
| 2026-05-04 21:37 | 45.18959 | 6.30649 | 36007 ft | 476 kts | 353° |
| 2026-05-04 21:37 | 45.25574 | 6.30156 | 35999 ft | 476 kts | 353° |
| 2026-05-04 21:38 | 45.32191 | 6.29658 | 35984 ft | 476 kts | 353° |
| 2026-05-04 21:38 | 45.37692 | 6.29243 | 35987 ft | 477 kts | 353° |
| 2026-05-04 21:39 | 45.44321 | 6.28752 | 35986 ft | 477 kts | 353° |
| 2026-05-04 21:39 | 45.50944 | 6.28253 | 35980 ft | 476 kts | 353° |
| 2026-05-04 21:40 | 45.57557 | 6.27745 | 35979 ft | 476 kts | 353° |
| 2026-05-04 21:40 | 45.64177 | 6.27242 | 35977 ft | 476 kts | 353° |
| 2026-05-04 21:41 | 45.70797 | 6.26741 | 35989 ft | 476 kts | 353° |
| 2026-05-04 21:41 | 45.77410 | 6.26235 | 35994 ft | 477 kts | 354° |
| 2026-05-04 21:42 | 45.84041 | 6.25728 | 36002 ft | 477 kts | 354° |
| 2026-05-04 21:42 | 45.90667 | 6.25228 | 36005 ft | 477 kts | 354° |
| 2026-05-04 21:43 | 45.97250 | 6.24730 | 36003 ft | 477 kts | 354° |
| 2026-05-04 21:43 | 46.03874 | 6.24218 | 36003 ft | 477 kts | 354° |
| 2026-05-04 21:44 | 46.10503 | 6.23707 | 36006 ft | 477 kts | 354° |
| 2026-05-04 21:44 | 46.17134 | 6.23196 | 36008 ft | 477 kts | 354° |
| 2026-05-04 21:45 | 46.23765 | 6.22682 | 36013 ft | 477 kts | 354° |
| 2026-05-04 21:45 | 46.30395 | 6.22167 | 36010 ft | 477 kts | 354° |
| 2026-05-04 21:46 | 46.37021 | 6.21655 | 36015 ft | 477 kts | 354° |
| 2026-05-04 21:46 | 46.43641 | 6.21140 | 36019 ft | 476 kts | 354° |
| 2026-05-04 21:47 | 46.50257 | 6.20618 | 36016 ft | 476 kts | 354° |
| 2026-05-04 21:47 | 46.56866 | 6.20093 | 36016 ft | 476 kts | 354° |
| 2026-05-04 21:48 | 46.63481 | 6.19580 | 36016 ft | 475 kts | 354° |
| 2026-05-04 21:48 | 46.70083 | 6.19061 | 36015 ft | 475 kts | 354° |
| 2026-05-04 21:49 | 46.76636 | 6.18550 | 36013 ft | 475 kts | 354° |
| 2026-05-04 21:49 | 46.83229 | 6.18032 | 36007 ft | 475 kts | 354° |
| 2026-05-04 21:50 | 46.89825 | 6.17509 | 36005 ft | 474 kts | 354° |
| 2026-05-04 21:50 | 46.96410 | 6.16978 | 36007 ft | 475 kts | 354° |
| 2026-05-04 21:51 | 47.03009 | 6.16460 | 36005 ft | 474 kts | 354° |
| 2026-05-04 21:51 | 47.09603 | 6.15941 | 36004 ft | 474 kts | 354° |
| 2026-05-04 21:52 | 47.16193 | 6.15408 | 36005 ft | 474 kts | 353° |
| 2026-05-04 21:52 | 47.22778 | 6.14870 | 36008 ft | 474 kts | 353° |
| 2026-05-04 21:53 | 47.29359 | 6.14330 | 36009 ft | 474 kts | 353° |
| 2026-05-04 21:53 | 47.35943 | 6.13806 | 36008 ft | 474 kts | 353° |
| 2026-05-04 21:54 | 47.42522 | 6.13294 | 36007 ft | 473 kts | 353° |
| 2026-05-04 21:54 | 47.49094 | 6.12761 | 36007 ft | 473 kts | 353° |
| 2026-05-04 21:55 | 47.55660 | 6.12227 | 36006 ft | 472 kts | 353° |
| 2026-05-04 21:55 | 47.62225 | 6.11693 | 36003 ft | 472 kts | 353° |
| 2026-05-04 21:56 | 47.68778 | 6.11142 | 35999 ft | 472 kts | 353° |
| 2026-05-04 21:56 | 47.75340 | 6.10611 | 36002 ft | 472 kts | 353° |
| 2026-05-04 21:57 | 47.81856 | 6.10081 | 36003 ft | 472 kts | 353° |
| 2026-05-04 21:57 | 47.88415 | 6.09542 | 36005 ft | 472 kts | 353° |
| 2026-05-04 21:58 | 47.94975 | 6.08999 | 36005 ft | 472 kts | 353° |
| 2026-05-04 21:58 | 48.01542 | 6.08451 | 36004 ft | 473 kts | 353° |
| 2026-05-04 21:59 | 48.08110 | 6.07904 | 35997 ft | 473 kts | 353° |
| 2026-05-04 21:59 | 48.14681 | 6.07365 | 35997 ft | 473 kts | 353° |
| 2026-05-04 22:00 | 48.21265 | 6.06822 | 35987 ft | 473 kts | 353° |
| 2026-05-04 22:00 | 48.27842 | 6.06272 | 35985 ft | 474 kts | 354° |
| 2026-05-04 22:01 | 48.34430 | 6.05852 | 35986 ft | 475 kts | 356° |
| 2026-05-04 22:01 | 48.41036 | 6.06084 | 35988 ft | 476 kts | 0° |
| 2026-05-04 22:02 | 48.47655 | 6.06610 | 35991 ft | 476 kts | 0° |
| 2026-05-04 22:02 | 48.54268 | 6.07031 | 35993 ft | 475 kts | 359° |
| 2026-05-04 22:03 | 48.60831 | 6.07315 | 35992 ft | 475 kts | 359° |
| 2026-05-04 22:03 | 48.67438 | 6.07570 | 35989 ft | 475 kts | 359° |
| 2026-05-04 22:04 | 48.74041 | 6.07863 | 35989 ft | 474 kts | 359° |
| 2026-05-04 22:04 | 48.80636 | 6.08181 | 35988 ft | 474 kts | 359° |
| 2026-05-04 22:05 | 48.87228 | 6.08492 | 35989 ft | 474 kts | 359° |
| 2026-05-04 22:05 | 48.93835 | 6.08793 | 35989 ft | 474 kts | 359° |
| 2026-05-04 22:06 | 49.00431 | 6.09102 | 35986 ft | 474 kts | 360° |
| 2026-05-04 22:06 | 49.07027 | 6.09419 | 35985 ft | 474 kts | 359° |
| 2026-05-04 22:07 | 49.13616 | 6.09730 | 35975 ft | 475 kts | 359° |
| 2026-05-04 22:07 | 49.16923 | 6.09883 | 35724 ft | 475 kts | 359° |
| 2026-05-04 22:07 | 49.20222 | 6.10031 | 35476 ft | 475 kts | 359° |
| 2026-05-04 22:07 | 49.23524 | 6.10191 | 35229 ft | 475 kts | 360° |
| 2026-05-04 22:08 | 49.26829 | 6.10369 | 34985 ft | 475 kts | 360° |
| 2026-05-04 22:08 | 49.30093 | 6.10554 | 34747 ft | 476 kts | 360° |
| 2026-05-04 22:08 | 49.32562 | 6.10694 | 34566 ft | 476 kts | 360° |
| 2026-05-04 22:08 | 49.35829 | 6.10878 | 34321 ft | 477 kts | 360° |
| 2026-05-04 22:09 | 49.39145 | 6.11062 | 34091 ft | 477 kts | 360° |
| 2026-05-04 22:09 | 49.42467 | 6.11240 | 33841 ft | 478 kts | 360° |
| 2026-05-04 22:09 | 49.45796 | 6.11413 | 33555 ft | 478 kts | 360° |
| 2026-05-04 22:09 | 49.49121 | 6.11584 | 33284 ft | 479 kts | 359° |
| 2026-05-04 22:10 | 49.52450 | 6.11730 | 33012 ft | 479 kts | 359° |
| 2026-05-04 22:10 | 49.55784 | 6.11850 | 32746 ft | 479 kts | 359° |
| 2026-05-04 22:10 | 49.59118 | 6.11954 | 32478 ft | 480 kts | 359° |
| 2026-05-04 22:10 | 49.62464 | 6.12062 | 32216 ft | 480 kts | 359° |
| 2026-05-04 22:11 | 49.65803 | 6.12176 | 31954 ft | 481 kts | 359° |
| 2026-05-04 22:11 | 49.69147 | 6.12299 | 31697 ft | 481 kts | 359° |
| 2026-05-04 22:11 | 49.72493 | 6.12429 | 31442 ft | 482 kts | 359° |
| 2026-05-04 22:11 | 49.75847 | 6.12566 | 31188 ft | 482 kts | 359° |
| 2026-05-04 22:12 | 49.79207 | 6.12702 | 30422 ft | 485 kts | 358° |
| 2026-05-04 22:12 | 49.82609 | 6.12833 | 29067 ft | 494 kts | 358° |
| 2026-05-04 22:12 | 49.86060 | 6.12965 | 28201 ft | 492 kts | 358° |
| 2026-05-04 22:12 | 49.89452 | 6.13067 | 27542 ft | 485 kts | 358° |
| 2026-05-04 22:13 | 49.92806 | 6.13110 | 26815 ft | 480 kts | 357° |
| 2026-05-04 22:13 | 49.96134 | 6.13116 | 26095 ft | 475 kts | 357° |
| 2026-05-04 22:13 | 49.99417 | 6.13106 | 25388 ft | 470 kts | 357° |
| 2026-05-04 22:13 | 50.02673 | 6.13090 | 24703 ft | 466 kts | 358° |
| 2026-05-04 22:14 | 50.05908 | 6.13083 | 24014 ft | 463 kts | 358° |
| 2026-05-04 22:14 | 50.09114 | 6.13089 | 23315 ft | 460 kts | 358° |
| 2026-05-04 22:14 | 50.12259 | 6.13105 | 22627 ft | 455 kts | 358° |
| 2026-05-04 22:14 | 50.15407 | 6.13128 | 22015 ft | 449 kts | 358° |
| 2026-05-04 22:15 | 50.18520 | 6.13154 | 21412 ft | 444 kts | 358° |
| 2026-05-04 22:15 | 50.21593 | 6.13179 | 20827 ft | 439 kts | 358° |
| 2026-05-04 22:15 | 50.24633 | 6.13201 | 20274 ft | 434 kts | 359° |
| 2026-05-04 22:15 | 50.27629 | 6.13584 | 19728 ft | 432 kts | 8° |
| 2026-05-04 22:16 | 50.30523 | 6.14759 | 19209 ft | 428 kts | 19° |
| 2026-05-04 22:16 | 50.33230 | 6.16673 | 18693 ft | 425 kts | 29° |
| 2026-05-04 22:16 | 50.35711 | 6.19141 | 18169 ft | 421 kts | 33° |
| 2026-05-04 22:16 | 50.38149 | 6.21653 | 17626 ft | 417 kts | 33° |
| 2026-05-04 22:17 | 50.40555 | 6.24137 | 17106 ft | 413 kts | 33° |
| 2026-05-04 22:17 | 50.42942 | 6.26603 | 16598 ft | 409 kts | 33° |
| 2026-05-04 22:17 | 50.45311 | 6.29045 | 16073 ft | 406 kts | 33° |
| 2026-05-04 22:17 | 50.47551 | 6.31699 | 15539 ft | 403 kts | 43° |
| 2026-05-04 22:18 | 50.49423 | 6.34939 | 14974 ft | 400 kts | 54° |
| 2026-05-04 22:18 | 50.50868 | 6.38642 | 14429 ft | 397 kts | 65° |
| 2026-05-04 22:18 | 50.51965 | 6.42605 | 13863 ft | 395 kts | 68° |
| 2026-05-04 22:18 | 50.53039 | 6.46574 | 13398 ft | 388 kts | 68° |
| 2026-05-04 22:19 | 50.54063 | 6.50324 | 13253 ft | 360 kts | 68° |
| 2026-05-04 22:19 | 50.55025 | 6.53820 | 13115 ft | 336 kts | 68° |
| 2026-05-04 22:19 | 50.55923 | 6.57081 | 12984 ft | 315 kts | 68° |
| 2026-05-04 22:19 | 50.56752 | 6.60105 | 12850 ft | 296 kts | 69° |
| 2026-05-04 22:20 | 50.57541 | 6.62999 | 12730 ft | 282 kts | 69° |
| 2026-05-04 22:20 | 50.58308 | 6.65849 | 12282 ft | 286 kts | 69° |
| 2026-05-04 22:20 | 50.59089 | 6.68768 | 11823 ft | 285 kts | 69° |
| 2026-05-04 22:20 | 50.59845 | 6.71585 | 11680 ft | 275 kts | 69° |
| 2026-05-04 22:21 | 50.60587 | 6.74335 | 11436 ft | 272 kts | 69° |
| 2026-05-04 22:21 | 50.61146 | 6.77143 | 11161 ft | 266 kts | 88° |
| 2026-05-04 22:21 | 50.60975 | 6.79975 | 10889 ft | 257 kts | 113° |
| 2026-05-04 22:21 | 50.60104 | 6.82363 | 10600 ft | 249 kts | 137° |
| 2026-05-04 22:22 | 50.58746 | 6.83948 | 10309 ft | 241 kts | 160° |
| 2026-05-04 22:22 | 50.57147 | 6.84567 | 10018 ft | 235 kts | 181° |
| 2026-05-04 22:22 | 50.55555 | 6.84203 | 9726 ft | 231 kts | 201° |
| 2026-05-04 22:22 | 50.54174 | 6.82953 | 9415 ft | 230 kts | 221° |
| 2026-05-04 22:23 | 50.53189 | 6.80989 | 9121 ft | 230 kts | 240° |
| 2026-05-04 22:23 | 50.52694 | 6.78594 | 8800 ft | 233 kts | 263° |
| 2026-05-04 22:23 | 50.52953 | 6.76070 | 8654 ft | 241 kts | 291° |
| 2026-05-04 22:23 | 50.54004 | 6.73998 | 8528 ft | 249 kts | 322° |
| 2026-05-04 22:24 | 50.55635 | 6.73046 | 8401 ft | 256 kts | 354° |
| 2026-05-04 22:24 | 50.57374 | 6.73572 | 8271 ft | 260 kts | 27° |
| 2026-05-04 22:24 | 50.58693 | 6.75454 | 8147 ft | 258 kts | 61° |
| 2026-05-04 22:24 | 50.59372 | 6.78045 | 8040 ft | 257 kts | 72° |
| 2026-05-04 22:25 | 50.59988 | 6.80676 | 7847 ft | 256 kts | 71° |
| 2026-05-04 22:25 | 50.60616 | 6.83290 | 7553 ft | 255 kts | 71° |
| 2026-05-04 22:25 | 50.61243 | 6.85893 | 7288 ft | 254 kts | 71° |
| 2026-05-04 22:25 | 50.61869 | 6.88493 | 7005 ft | 253 kts | 71° |
| 2026-05-04 22:26 | 50.62491 | 6.91073 | 6735 ft | 252 kts | 71° |
| 2026-05-04 22:26 | 50.63092 | 6.93566 | 6463 ft | 251 kts | 71° |
| 2026-05-04 22:26 | 50.63707 | 6.96128 | 6184 ft | 249 kts | 71° |
| 2026-05-04 22:26 | 50.64317 | 6.98683 | 5908 ft | 248 kts | 71° |
| 2026-05-04 22:27 | 50.64923 | 7.01221 | 5628 ft | 247 kts | 71° |
| 2026-05-04 22:27 | 50.65520 | 7.03720 | 5347 ft | 246 kts | 71° |
| 2026-05-04 22:27 | 50.66122 | 7.06246 | 5065 ft | 245 kts | 71° |
| 2026-05-04 22:27 | 50.66717 | 7.08758 | 4792 ft | 244 kts | 71° |
| 2026-05-04 22:28 | 50.67311 | 7.11261 | 4511 ft | 243 kts | 71° |
| 2026-05-04 22:28 | 50.67900 | 7.13756 | 4222 ft | 243 kts | 71° |
| 2026-05-04 22:28 | 50.68487 | 7.16245 | 3928 ft | 242 kts | 71° |
| 2026-05-04 22:28 | 50.69073 | 7.18721 | 3648 ft | 241 kts | 71° |
| 2026-05-04 22:29 | 50.69651 | 7.21166 | 3378 ft | 240 kts | 71° |
| 2026-05-04 22:29 | 50.70234 | 7.23633 | 3148 ft | 237 kts | 71° |
| 2026-05-04 22:29 | 50.70831 | 7.26009 | 3027 ft | 229 kts | 63° |
| 2026-05-04 22:29 | 50.71779 | 7.27941 | 3010 ft | 220 kts | 41° |
| 2026-05-04 22:30 | 50.73048 | 7.29202 | 3043 ft | 214 kts | 20° |
| 2026-05-04 22:30 | 50.74479 | 7.29718 | 3006 ft | 208 kts | 1° |
| 2026-05-04 22:30 | 50.75891 | 7.29490 | 2771 ft | 202 kts | 341° |
| 2026-05-04 22:30 | 50.77126 | 7.28589 | 2541 ft | 190 kts | 322° |
| 2026-05-04 22:31 | 50.78100 | 7.27281 | 2315 ft | 179 kts | 314° |
| 2026-05-04 22:31 | 50.78982 | 7.26011 | 2074 ft | 166 kts | 314° |
| 2026-05-04 22:31 | 50.79531 | 7.25220 | 1922 ft | 157 kts | 314° |
| 2026-05-04 22:31 | 50.80313 | 7.24082 | 1697 ft | 151 kts | 314° |
| 2026-05-04 22:32 | 50.81064 | 7.22955 | 1487 ft | 148 kts | 314° |
| 2026-05-04 22:32 | 50.81819 | 7.21861 | 1291 ft | 146 kts | 317° |
| 2026-05-04 22:32 | 50.82567 | 7.20795 | 1082 ft | 145 kts | 317° |
| 2026-05-04 22:32 | 50.83309 | 7.19723 | 904 ft | 144 kts | 316° |
| 2026-05-04 22:33 | 50.84057 | 7.18673 | 719 ft | 143 kts | 320° |
| 2026-05-04 22:33 | 50.84789 | 7.17602 | 532 ft | 142 kts | 319° |
| 2026-05-04 22:33 | 50.85523 | 7.16556 | 357 ft | 142 kts | 317° |
| 2026-05-04 22:33 | 50.86211 | 7.15568 | 282 ft | 116 kts | 316° |
| 2026-05-04 22:34 | 50.86680 | 7.14890 | 274 ft | 67 kts | 318° |
| 2026-05-04 22:34 | 50.86904 | 7.14554 | 270 ft | 32 kts | 319° |
| 2026-05-04 22:34 | 50.87067 | 7.14333 | 271 ft | 30 kts | 320° |
| 2026-05-04 22:34 | 50.87215 | 7.14117 | 268 ft | 29 kts | 307° |
| 2026-05-04 22:35 | 50.87301 | 7.13841 | 261 ft | 26 kts | 282° |
| 2026-05-04 22:35 | 50.87331 | 7.13592 | 257 ft | 22 kts | 281° |
| 2026-05-04 22:35 | 50.87359 | 7.13329 | 248 ft | 26 kts | 283° |
| 2026-05-04 22:35 | 50.87480 | 7.13124 | 246 ft | 27 kts | 315° |
| 2026-05-04 22:36 | 50.87614 | 7.12922 | 243 ft | 27 kts | 317° |
| 2026-05-04 22:36 | 50.87736 | 7.12748 | 239 ft | 20 kts | 319° |
| 2026-05-04 22:36 | 50.87812 | 7.12590 | 239 ft | 14 kts | 307° |
| 2026-05-04 22:36 | 50.87831 | 7.12500 | 234 ft | 6 kts | 276° |
| 2026-05-04 22:37 | 50.87828 | 7.12450 | 233 ft | 3 kts | 283° |
| 2026-05-04 22:37 | 50.87833 | 7.12427 | 236 ft | 1 kts | 286° |
| 2026-05-04 22:37 | 50.87834 | 7.12419 | 235 ft | 1 kts | 286° |
| 2026-05-04 22:37 | 50.87835 | 7.12418 | 233 ft | 0 kts | 286° |